Time;durP1;ratioP1;P1;durP2;ratioP2;P2;SDS_P1;SDS_P2;PMS_P1;PMS_P2;Temp;Humidity;BMP_temperature;BMP_pressure;BME280_temperature;BME280_humidity;BME280_pressure;Samples;Min_cycle;Max_cycle;Signal;HPM_P1;HPM_P2
2023/01/22 00:01:58;;;;;;;;;33.50;29.00;;;;;3.59;100.00;102488.53;5063048;28;28919;-84
2023/01/22 00:04:23;;;;;;;;;38.75;34.50;;;;;3.53;100.00;102480.19;5063576;28;27892;-84
2023/01/22 00:06:49;;;;;;;;;44.75;40.00;;;;;3.52;100.00;102476.66;5069206;28;27880;-84
2023/01/22 00:09:14;;;;;;;;;34.75;31.75;;;;;3.52;100.00;102481.00;5101428;28;28456;-84
2023/01/22 00:11:40;;;;;;;;;39.75;38.50;;;;;3.46;100.00;102470.06;5082921;28;28726;-84
2023/01/22 00:14:07;;;;;;;;;35.50;32.50;;;;;3.36;100.00;102474.66;5082398;28;28339;-84
2023/01/22 00:16:32;;;;;;;;;36.75;32.50;;;;;3.26;100.00;102469.56;5100390;28;28421;-84
2023/01/22 00:18:57;;;;;;;;;43.50;41.00;;;;;3.30;100.00;102483.84;5083081;28;30093;-84
2023/01/22 00:21:23;;;;;;;;;38.50;36.50;;;;;3.22;100.00;102470.13;5082911;28;28950;-84
2023/01/22 00:23:49;;;;;;;;;45.75;39.50;;;;;3.29;100.00;102461.91;5101836;28;28656;-84
2023/01/22 00:26:16;;;;;;;;;40.50;38.75;;;;;3.33;100.00;102468.25;5084602;28;27904;-84
2023/01/22 00:28:46;;;;;;;;;39.25;35.50;;;;;3.34;100.00;102481.53;5084695;28;30011;-84
2023/01/22 00:31:13;;;;;;;;;35.75;28.75;;;;;3.32;100.00;102483.13;5103073;28;28573;-84
2023/01/22 00:33:39;;;;;;;;;41.00;34.25;;;;;3.26;100.00;102472.19;5085986;28;27943;-84
2023/01/22 00:36:09;;;;;;;;;37.50;31.75;;;;;3.30;100.00;102471.59;5082855;28;27962;-84
2023/01/22 00:38:35;;;;;;;;;41.50;35.00;;;;;3.17;100.00;102461.00;5082969;28;29835;-84
2023/01/22 00:41:02;;;;;;;;;35.25;28.25;;;;;3.22;100.00;102475.41;5083430;28;28757;-84
2023/01/22 00:43:29;;;;;;;;;45.25;37.00;;;;;3.22;100.00;102470.13;5083498;28;28882;-84
2023/01/22 00:45:54;;;;;;;;;34.25;31.50;;;;;3.23;100.00;102464.06;5084322;28;27963;-84
2023/01/22 00:48:19;;;;;;;;;42.75;34.75;;;;;3.24;100.00;102473.78;5100769;28;28513;-84
2023/01/22 00:50:45;;;;;;;;;44.00;38.25;;;;;3.17;100.00;102467.19;5082780;28;29661;-84
2023/01/22 00:53:10;;;;;;;;;37.25;32.25;;;;;3.19;100.00;102460.31;5082255;28;28692;-84
2023/01/22 00:55:35;;;;;;;;;35.00;32.00;;;;;3.18;100.00;102463.75;5101669;28;28326;-84
2023/01/22 00:58:01;;;;;;;;;39.50;30.75;;;;;3.26;100.00;102476.53;5082202;28;29583;-84
2023/01/22 01:00:28;;;;;;;;;35.25;32.25;;;;;3.29;100.00;102472.41;5083459;28;29246;-84
2023/01/22 01:05:37;;;;;;;;;43.25;35.25;;;;;3.25;100.00;102454.56;5101703;28;28503;-84
2023/01/22 01:08:03;;;;;;;;;40.25;39.00;;;;;3.26;100.00;102456.41;5101798;28;28461;-84
2023/01/22 01:10:28;;;;;;;;;39.50;34.00;;;;;3.20;100.00;102446.34;5083311;28;29301;-83
2023/01/22 01:12:54;;;;;;;;;43.50;41.50;;;;;3.26;100.00;102443.25;5081529;28;28537;-84
2023/01/22 01:15:19;;;;;;;;;34.00;33.75;;;;;3.24;100.00;102454.47;5082309;28;27968;-85
2023/01/22 01:17:45;;;;;;;;;40.25;36.00;;;;;3.27;100.00;102441.53;5101555;28;28355;-84
2023/01/22 01:20:12;;;;;;;;;47.00;39.25;;;;;3.32;100.00;102443.69;5083524;28;28526;-84
2023/01/22 01:22:37;;;;;;;;;48.25;41.25;;;;;3.29;100.00;102446.13;5082822;28;28489;-84
2023/01/22 01:25:03;;;;;;;;;39.50;30.75;;;;;3.40;100.00;102450.41;5073107;28;27863;-84
2023/01/22 01:27:30;;;;;;;;;41.50;37.00;;;;;3.38;100.00;102452.00;5082307;28;28088;-84
2023/01/22 01:29:57;;;;;;;;;44.25;37.00;;;;;3.49;100.00;102459.75;5081936;28;27894;-83
2023/01/22 01:32:22;;;;;;;;;43.50;39.25;;;;;3.39;100.00;102447.66;5081393;28;27865;-84
2023/01/22 01:34:48;;;;;;;;;47.75;42.00;;;;;3.47;100.00;102450.81;5081063;28;27850;-85
2023/01/22 01:37:14;;;;;;;;;48.50;41.25;;;;;3.44;100.00;102448.91;5082915;28;28329;-84
2023/01/22 01:39:39;;;;;;;;;39.00;34.25;;;;;3.44;100.00;102450.63;5082072;28;27846;-84
2023/01/22 01:42:05;;;;;;;;;41.75;35.00;;;;;3.50;100.00;102456.31;5063129;28;28458;-85
2023/01/22 01:44:31;;;;;;;;;50.00;40.25;;;;;3.48;100.00;102463.19;5062744;28;28425;-85
2023/01/22 01:47:04;;;;;;;;;32.75;30.50;;;;;3.62;100.00;102472.97;5064262;28;30036;-85
2023/01/22 01:49:51;;;;;;;;;43.00;40.50;;;;;3.58;100.00;102470.94;5079826;28;28570;-85
2023/01/22 01:52:18;;;;;;;;;48.25;39.75;;;;;3.42;100.00;102460.13;5081662;28;28428;-85
2023/01/22 01:54:50;;;;;;;;;43.00;36.00;;;;;3.38;100.00;102457.28;5082078;28;27903;-85
2023/01/22 01:57:20;;;;;;;;;35.75;29.00;;;;;3.37;100.00;102459.78;5080874;28;28421;-85
2023/01/22 01:59:49;;;;;;;;;52.75;42.50;;;;;3.34;100.00;102470.09;5080208;28;28444;-85
2023/01/22 02:02:14;;;;;;;;;47.00;40.75;;;;;3.27;100.00;102471.34;5062062;28;28442;-85
2023/01/22 02:04:40;;;;;;;;;41.75;37.00;;;;;3.24;100.00;102467.63;5076721;28;28647;-84
2023/01/22 02:07:05;;;;;;;;;40.25;34.50;;;;;3.25;100.00;102465.06;5082546;28;29646;-85
2023/01/22 02:09:31;;;;;;;;;45.50;40.50;;;;;3.19;100.00;102462.00;5082541;28;28733;-85
2023/01/22 02:11:57;;;;;;;;;53.00;41.75;;;;;3.19;100.00;102454.13;5081707;28;28479;-85
2023/01/22 02:14:31;;;;;;;;;40.50;35.00;;;;;3.29;100.00;102448.75;5080967;28;28518;-85
2023/01/22 02:17:00;;;;;;;;;47.75;40.25;;;;;3.24;100.00;102446.59;5100140;28;28680;-85
2023/01/22 02:19:25;;;;;;;;;45.25;39.50;;;;;3.18;100.00;102454.94;5100564;28;28613;-84
2023/01/22 02:21:51;;;;;;;;;46.25;36.75;;;;;3.15;100.00;102442.50;5101101;28;28467;-85
2023/01/22 02:24:16;;;;;;;;;40.25;36.25;;;;;3.10;100.00;102470.16;5081424;28;28541;-85
2023/01/22 02:26:44;;;;;;;;;37.50;32.50;;;;;3.08;100.00;102465.59;5081548;28;30946;-85
2023/01/22 02:29:12;;;;;;;;;44.75;41.00;;;;;3.10;100.00;102475.41;5100977;28;28386;-85
2023/01/22 02:31:38;;;;;;;;;37.75;33.50;;;;;3.09;100.00;102460.47;5079054;28;28472;-85
2023/01/22 02:34:17;;;;;;;;;39.75;38.75;;;;;3.34;100.00;102472.72;5080331;28;28574;-85
2023/01/22 02:36:44;;;;;;;;;40.75;31.50;;;;;3.12;100.00;102451.88;5079163;28;28546;-85
2023/01/22 02:39:10;;;;;;;;;51.50;41.25;;;;;3.07;100.00;102463.75;5082151;28;27762;-85
2023/01/22 02:41:35;;;;;;;;;58.00;43.75;;;;;3.24;100.00;102462.38;5081063;28;28482;-84
2023/01/22 02:44:00;;;;;;;;;53.75;47.00;;;;;3.27;100.00;102454.69;5079152;28;28303;-85
2023/01/22 02:46:26;;;;;;;;;48.25;40.00;;;;;3.34;100.00;102449.97;5081471;28;28236;-85
2023/01/22 02:48:52;;;;;;;;;49.75;42.75;;;;;3.25;100.00;102456.28;5078327;28;28473;-85
2023/01/22 02:51:17;;;;;;;;;49.75;42.25;;;;;3.19;100.00;102464.63;5080791;28;27874;-85
2023/01/22 02:53:43;;;;;;;;;45.25;40.50;;;;;3.06;100.00;102461.97;5081857;28;28570;-84
2023/01/22 02:56:10;;;;;;;;;44.75;40.00;;;;;3.20;100.00;102471.75;5081563;28;29783;-85
2023/01/22 02:58:35;;;;;;;;;41.50;40.75;;;;;3.13;100.00;102469.47;5082010;28;29186;-85
2023/01/22 03:01:26;;;;;;;;;44.00;39.25;;;;;3.28;100.00;102467.94;5083219;28;28601;-85
2023/01/22 03:03:54;;;;;;;;;49.25;38.50;;;;;3.27;100.00;102462.56;5082367;28;28693;-85
2023/01/22 03:06:22;;;;;;;;;43.00;39.50;;;;;3.26;100.00;102459.03;5082971;28;30280;-85
2023/01/22 03:08:58;;;;;;;;;51.00;43.00;;;;;3.34;100.00;102456.94;5082328;28;28520;-84
2023/01/22 03:11:26;;;;;;;;;51.75;42.25;;;;;3.37;100.00;102476.50;5081828;28;28416;-85
2023/01/22 03:22:08;;;;;;;;;49.25;44.00;;;;;3.37;100.00;102463.34;5081084;28;28447;-85
2023/01/22 03:24:33;;;;;;;;;49.25;44.00;;;;;3.32;100.00;102467.34;5081787;28;28563;-85
2023/01/22 03:26:59;;;;;;;;;38.25;35.75;;;;;3.32;100.00;102454.22;5079949;28;31293;-85
2023/01/22 03:29:25;;;;;;;;;47.00;42.75;;;;;3.29;100.00;102458.31;5078141;28;28862;-85
2023/01/22 03:31:50;;;;;;;;;46.25;41.25;;;;;3.23;100.00;102458.78;5077838;28;27901;-85
2023/01/22 03:34:18;;;;;;;;;51.25;37.25;;;;;3.37;100.00;102462.41;5079364;28;28503;-84
2023/01/22 03:36:43;;;;;;;;;46.50;42.25;;;;;3.45;100.00;102457.69;5079494;28;30238;-85
2023/01/22 03:39:09;;;;;;;;;31.50;29.00;;;;;3.48;100.00;102466.72;5084060;28;28900;-85
2023/01/22 03:41:34;;;;;;;;;55.25;43.75;;;;;3.49;100.00;102454.47;5084189;28;28288;-85
2023/01/22 03:44:08;;;;;;;;;56.75;46.00;;;;;3.58;100.00;102452.50;5083849;28;28560;-85
2023/01/22 03:46:33;;;;;;;;;39.25;36.50;;;;;3.55;100.00;102458.44;5084106;28;30447;-85
2023/01/22 03:48:59;;;;;;;;;44.50;37.50;;;;;3.55;100.00;102457.53;5083839;28;27752;-85
2023/01/22 03:51:24;;;;;;;;;41.00;37.50;;;;;3.52;100.00;102465.22;5082000;28;28453;-85
2023/01/22 03:53:50;;;;;;;;;49.50;44.50;;;;;3.42;100.00;102452.25;5081859;28;28550;-85
2023/01/22 03:59:37;;;;;;;;;38.75;34.25;;;;;3.36;100.00;102463.22;5082402;28;28547;-84
2023/01/22 04:02:02;;;;;;;;;43.75;40.25;;;;;3.36;100.00;102458.88;5083005;28;28483;-84
2023/01/22 04:04:28;;;;;;;;;41.00;38.50;;;;;3.36;100.00;102461.50;5082823;28;28370;-84
2023/01/22 04:06:53;;;;;;;;;45.25;39.50;;;;;3.39;100.00;102463.44;5080687;28;28397;-84
2023/01/22 04:09:18;;;;;;;;;43.50;39.25;;;;;3.39;100.00;102459.13;5082252;28;28479;-84
2023/01/22 04:11:44;;;;;;;;;51.75;37.75;;;;;3.34;100.00;102444.72;5080907;28;28750;-84
2023/01/22 04:14:09;;;;;;;;;37.25;34.25;;;;;3.41;100.00;102464.47;5082667;28;28345;-84
2023/01/22 04:16:35;;;;;;;;;38.50;36.75;;;;;3.39;100.00;102456.47;5080870;28;29974;-84
2023/01/22 04:19:00;;;;;;;;;55.50;41.75;;;;;3.36;100.00;102451.00;5082532;28;28374;-84
2023/01/22 04:21:25;;;;;;;;;49.00;42.50;;;;;3.42;100.00;102465.41;5080570;28;27851;-84
2023/01/22 04:23:51;;;;;;;;;49.00;41.00;;;;;3.46;100.00;102454.28;5081504;28;27926;-84
2023/01/22 04:26:16;;;;;;;;;48.75;39.75;;;;;3.46;100.00;102455.19;5080811;28;29859;-84
2023/01/22 04:28:42;;;;;;;;;41.25;34.00;;;;;3.43;100.00;102449.69;5080915;28;28574;-84
2023/01/22 04:31:08;;;;;;;;;38.25;35.00;;;;;3.51;100.00;102453.78;5079423;28;28789;-84
2023/01/22 04:33:34;;;;;;;;;44.75;42.50;;;;;3.55;100.00;102457.53;5080398;28;28523;-84
2023/01/22 04:35:59;;;;;;;;;47.50;40.25;;;;;3.54;100.00;102459.25;5079592;28;29862;-84
2023/01/22 04:38:25;;;;;;;;;44.50;40.75;;;;;3.53;100.00;102460.06;5080809;28;28488;-84
2023/01/22 04:40:51;;;;;;;;;44.75;38.25;;;;;3.56;100.00;102443.59;5079983;28;29041;-85
2023/01/22 04:43:17;;;;;;;;;49.50;42.75;;;;;3.48;100.00;102440.44;5079976;28;27925;-84
2023/01/22 04:45:42;;;;;;;;;46.25;39.00;;;;;3.58;100.00;102447.25;5080915;28;29129;-84
2023/01/22 04:48:09;;;;;;;;;45.25;39.00;;;;;3.61;100.00;102439.56;5079006;28;28442;-84
2023/01/22 04:50:35;;;;;;;;;45.25;38.75;;;;;3.57;100.00;102424.38;5079798;28;28507;-84
2023/01/22 04:53:00;;;;;;;;;48.75;42.50;;;;;3.67;100.00;102434.72;5080118;28;28501;-85
2023/01/22 04:55:27;;;;;;;;;41.25;36.00;;;;;3.59;100.00;102441.16;5079846;28;30970;-85
2023/01/22 04:57:54;;;;;;;;;38.50;38.00;;;;;3.49;100.00;102441.34;5078942;28;28939;-85
2023/01/22 05:00:20;;;;;;;;;48.75;39.75;;;;;3.39;100.00;102440.69;5079463;28;27917;-85
2023/01/22 05:02:45;;;;;;;;;42.50;36.50;;;;;3.36;100.00;102436.94;5080765;28;28060;-85
2023/01/22 05:05:10;;;;;;;;;33.25;31.00;;;;;3.26;100.00;102431.84;5080345;28;29727;-84
2023/01/22 05:07:36;;;;;;;;;45.25;36.00;;;;;3.24;100.00;102431.72;5081220;28;29009;-84
2023/01/22 05:10:01;;;;;;;;;42.25;32.25;;;;;3.21;100.00;102423.59;5081323;28;28209;-84
2023/01/22 05:12:27;;;;;;;;;43.00;37.25;;;;;3.24;100.00;102433.44;5081857;28;28416;-84
2023/01/22 05:14:52;;;;;;;;;41.75;38.25;;;;;3.20;100.00;102420.06;5081202;28;29989;-84
2023/01/22 05:17:18;;;;;;;;;38.50;32.25;;;;;3.23;100.00;102440.38;5080699;28;29458;-84
2023/01/22 05:19:43;;;;;;;;;40.75;33.75;;;;;3.20;100.00;102432.31;5078854;28;27930;-84
2023/01/22 05:22:09;;;;;;;;;36.00;32.00;;;;;3.26;100.00;102429.19;5080310;28;28361;-84
2023/01/22 05:24:34;;;;;;;;;49.00;41.25;;;;;3.28;100.00;102433.75;5077674;28;28351;-84
2023/01/22 05:27:00;;;;;;;;;30.25;28.50;;;;;3.30;100.00;102418.09;5080982;28;28523;-84
2023/01/22 05:29:26;;;;;;;;;57.25;44.00;;;;;3.32;100.00;102419.13;5080079;28;27887;-84
2023/01/22 05:31:55;;;;;;;;;52.00;43.25;;;;;3.43;100.00;102419.84;5096500;28;28296;-84
2023/01/22 05:34:21;;;;;;;;;36.25;27.00;;;;;3.34;100.00;102412.25;5103584;28;28092;-83
2023/01/22 05:36:46;;;;;;;;;26.00;26.00;;;;;3.44;100.00;102424.34;5103002;28;28516;-84
2023/01/22 05:39:12;;;;;;;;;46.00;37.75;;;;;3.50;100.00;102424.75;5101864;28;28482;-84
2023/01/22 05:41:38;;;;;;;;;44.75;41.00;;;;;3.51;100.00;102421.31;5102341;28;28314;-84
2023/01/22 05:44:04;;;;;;;;;45.75;38.50;;;;;3.58;100.00;102418.31;5102237;28;29094;-84
2023/01/22 05:46:30;;;;;;;;;41.25;38.25;;;;;3.48;100.00;102421.09;5085263;28;29814;-84
2023/01/22 05:48:57;;;;;;;;;37.67;37.67;;;;;3.48;100.00;102413.22;5084896;28;28496;-84
2023/01/22 05:51:22;;;;;;;;;42.75;36.50;;;;;3.42;100.00;102408.44;5084780;28;28476;-83
2023/01/22 05:53:50;;;;;;;;;40.75;35.00;;;;;3.47;100.00;102414.00;5083887;28;29840;-84
2023/01/22 05:56:16;;;;;;;;;46.75;39.50;;;;;3.46;100.00;102412.19;5083752;28;28661;-84
2023/01/22 05:58:41;;;;;;;;;42.00;36.50;;;;;3.38;100.00;102409.03;5082344;28;28507;-84
2023/01/22 06:01:07;;;;;;;;;43.50;41.50;;;;;3.40;100.00;102407.41;5083303;28;28515;-84
2023/01/22 06:03:33;;;;;;;;;43.75;36.50;;;;;3.33;100.00;102395.56;5083495;28;29765;-85
2023/01/22 06:05:58;;;;;;;;;45.00;40.50;;;;;3.40;100.00;102412.69;5082562;28;28945;-84
2023/01/22 06:08:24;;;;;;;;;46.25;41.25;;;;;3.43;100.00;102411.97;5100959;28;28420;-84
2023/01/22 06:14:13;;;;;;;;;46.00;38.75;;;;;3.61;100.00;102423.75;5102104;28;28158;-84
2023/01/22 06:16:38;;;;;;;;;50.75;45.25;;;;;3.56;100.00;102425.19;5083778;28;29249;-84
2023/01/22 06:19:04;;;;;;;;;21.75;17.25;;;;;3.53;100.00;102424.97;5083530;28;28465;-84
2023/01/22 06:21:29;;;;;;;;;48.75;40.50;;;;;3.47;100.00;102409.66;5102321;28;28384;-84
2023/01/22 06:23:54;;;;;;;;;42.00;38.75;;;;;3.62;100.00;102419.44;5101233;28;28466;-85
2023/01/22 06:26:20;;;;;;;;;48.50;41.25;;;;;3.63;100.00;102402.84;5081652;28;28448;-85
2023/01/22 06:28:45;;;;;;;;;54.50;45.00;;;;;3.67;100.00;102403.13;5083199;28;28493;-85
2023/01/22 06:31:11;;;;;;;;;49.00;41.75;;;;;3.66;100.00;102413.59;5080673;28;27983;-85
2023/01/22 06:33:37;;;;;;;;;40.50;35.25;;;;;3.57;100.00;102411.22;5081251;28;28456;-85
2023/01/22 06:36:04;;;;;;;;;43.25;41.00;;;;;3.49;100.00;102412.41;5080163;28;29671;-85
2023/01/22 06:38:30;;;;;;;;;51.00;39.75;;;;;3.40;100.00;102407.41;5078696;28;27838;-83
2023/01/22 06:40:57;;;;;;;;;45.75;43.75;;;;;3.36;100.00;102408.91;5079638;28;28158;-85
2023/01/22 06:43:23;;;;;;;;;50.50;41.75;;;;;3.25;100.00;102425.63;5078155;28;31087;-85
2023/01/22 06:45:50;;;;;;;;;45.75;41.25;;;;;3.16;100.00;102422.38;5078676;28;29586;-85
2023/01/22 06:48:16;;;;;;;;;54.00;44.50;;;;;3.26;100.00;102430.09;5080157;28;27768;-85
2023/01/22 06:50:42;;;;;;;;;37.75;35.25;;;;;3.34;100.00;102423.66;5079480;28;28356;-85
2023/01/22 06:53:07;;;;;;;;;46.25;42.00;;;;;3.33;100.00;102426.19;5078929;28;30163;-85
2023/01/22 06:55:33;;;;;;;;;50.00;41.00;;;;;3.29;100.00;102425.09;5080668;28;28961;-85
2023/01/22 06:57:59;;;;;;;;;44.00;40.50;;;;;3.26;100.00;102422.22;5082559;28;28522;-84
2023/01/22 07:00:24;;;;;;;;;44.00;37.50;;;;;3.28;100.00;102427.59;5081734;28;28470;-84
2023/01/22 07:02:50;;;;;;;;;55.00;45.00;;;;;3.26;100.00;102429.19;5079198;28;29793;-84
2023/01/22 07:05:15;;;;;;;;;46.25;39.75;;;;;3.28;100.00;102431.13;5078880;28;28868;-84
2023/01/22 07:07:41;;;;;;;;;51.25;43.00;;;;;3.29;100.00;102438.22;5080171;28;28484;-84
2023/01/22 07:10:08;;;;;;;;;38.75;32.75;;;;;3.35;100.00;102437.72;5080103;28;28589;-84
2023/01/22 07:12:33;;;;;;;;;35.67;35.00;;;;;3.32;100.00;102440.16;5083296;28;30188;-84
2023/01/22 07:14:59;;;;;;;;;50.00;40.75;;;;;3.24;100.00;102431.72;5085558;28;28438;-84
2023/01/22 07:17:24;;;;;;;;;43.50;36.25;;;;;3.26;100.00;102445.88;5075363;28;27835;-84
2023/01/22 07:19:50;;;;;;;;;48.25;42.00;;;;;3.23;100.00;102447.38;5065545;28;28393;-85
2023/01/22 07:22:15;;;;;;;;;39.67;33.33;;;;;3.23;100.00;102453.53;5064514;28;30903;-85
2023/01/22 07:24:41;;;;;;;;;42.00;35.25;;;;;3.18;100.00;102457.56;5062458;28;28568;-85
2023/01/22 07:27:06;;;;;;;;;49.25;40.00;;;;;3.15;100.00;102455.66;5064374;28;28591;-85
2023/01/22 07:29:31;;;;;;;;;46.75;41.25;;;;;3.20;100.00;102463.84;5066598;28;27915;-84
2023/01/22 07:31:57;;;;;;;;;47.50;41.75;;;;;3.22;100.00;102471.88;5066268;28;31128;-84
2023/01/22 07:34:22;;;;;;;;;39.00;35.33;;;;;3.17;100.00;102463.63;5066022;28;28228;-84
2023/01/22 07:36:48;;;;;;;;;52.00;42.50;;;;;3.12;100.00;102462.41;5064492;28;28797;-84
2023/01/22 07:39:13;;;;;;;;;41.33;38.33;;;;;3.09;100.00;102460.47;5081958;28;28484;-84
2023/01/22 07:41:39;;;;;;;;;38.33;34.33;;;;;3.14;100.00;102472.22;5063947;28;30073;-84
2023/01/22 07:44:06;;;;;;;;;36.00;31.00;;;;;3.17;100.00;102466.25;5079437;28;28451;-84
2023/01/22 07:46:33;;;;;;;;;37.67;33.67;;;;;3.24;100.00;102462.38;5063522;28;28421;-84
2023/01/22 07:48:59;;;;;;;;;45.50;40.75;;;;;3.24;100.00;102472.88;5064899;28;28421;-85
2023/01/22 07:51:26;;;;;;;;;41.50;36.50;;;;;3.42;100.00;102468.03;5063335;28;28201;-85
2023/01/22 07:53:51;;;;;;;;;44.00;41.00;;;;;3.36;100.00;102474.66;5062825;28;27916;-85
2023/01/22 07:56:18;;;;;;;;;36.00;32.00;;;;;3.33;100.00;102469.19;5062395;28;28521;-85
2023/01/22 07:58:44;;;;;;;;;34.00;31.00;;;;;3.39;100.00;102477.53;5062606;28;28655;-85
2023/01/22 08:01:10;;;;;;;;;42.00;38.00;;;;;3.34;100.00;102471.00;5070109;28;28452;-85
2023/01/22 08:03:36;;;;;;;;;39.67;31.00;;;;;3.37;100.00;102465.97;5080796;28;28493;-85
2023/01/22 08:06:10;;;;;;;;;36.00;31.67;;;;;3.47;100.00;102467.50;5082603;28;28422;-85
2023/01/22 08:08:35;;;;;;;;;45.67;33.00;;;;;3.32;100.00;102471.72;5082253;28;27947;-85
2023/01/22 08:11:01;;;;;;;;;37.33;32.33;;;;;3.29;100.00;102475.03;5082390;28;28559;-85
2023/01/22 08:13:26;;;;;;;;;42.67;39.67;;;;;3.25;100.00;102480.84;5084233;28;28341;-85
2023/01/22 08:15:53;;;;;;;;;34.33;34.00;;;;;3.24;100.00;102493.91;5080208;28;28704;-84
2023/01/22 08:18:19;;;;;;;;;38.00;31.67;;;;;3.15;100.00;102483.63;5082995;28;28970;-85
2023/01/22 08:20:44;;;;;;;;;41.50;31.50;;;;;3.12;100.00;102478.16;5084060;28;28363;-85
2023/01/22 08:23:10;;;;;;;;;43.33;32.00;;;;;3.23;100.00;102494.69;5081684;28;29799;-85
2023/01/22 08:25:35;;;;;;;;;48.50;37.25;;;;;3.24;100.00;102497.44;5082350;28;28384;-85
2023/01/22 08:28:03;;;;;;;;;42.00;34.25;;;;;3.41;100.00;102503.91;5081323;28;28440;-85
2023/01/22 08:30:29;;;;;;;;;36.33;33.00;;;;;3.40;100.00;102500.38;5082920;28;28083;-85
2023/01/22 08:32:55;;;;;;;;;37.50;29.50;;;;;3.42;100.00;102494.31;5086195;28;29217;-85
2023/01/22 08:35:35;;;;;;;;;47.50;41.00;;;;;3.66;100.00;102508.31;5105383;28;28189;-85
2023/01/22 08:38:00;;;;;;;;;44.00;35.33;;;;;3.50;100.00;102508.94;5086869;28;28520;-85
2023/01/22 08:40:26;;;;;;;;;43.00;32.67;;;;;3.47;100.00;102509.59;5086688;28;28447;-84
2023/01/22 08:42:53;;;;;;;;;39.67;31.67;;;;;3.49;100.00;102510.63;5086352;28;28395;-84
2023/01/22 08:45:19;;;;;;;;;35.00;31.33;;;;;3.49;100.00;102515.88;5085401;28;28619;-85
2023/01/22 08:47:44;;;;;;;;;43.33;35.33;;;;;3.52;100.00;102524.00;5083084;28;28473;-84
2023/01/22 08:50:10;;;;;;;;;39.00;35.33;;;;;3.56;100.00;102517.25;5084692;28;29877;-85
2023/01/22 08:52:36;;;;;;;;;39.00;37.00;;;;;3.57;100.00;102524.31;5085553;28;28533;-84
2023/01/22 08:55:01;;;;;;;;;32.75;31.75;;;;;3.66;100.00;102530.25;5084705;28;28460;-84
2023/01/22 08:57:28;;;;;;;;;41.33;35.00;;;;;3.81;100.00;102530.41;5102365;28;28428;-84
2023/01/22 08:59:54;;;;;;;;;38.67;37.00;;;;;3.69;100.00;102517.31;5082277;28;29702;-84
2023/01/22 09:02:19;;;;;;;;;37.00;35.00;;;;;3.68;100.00;102519.84;5102923;28;28405;-84
2023/01/22 09:04:45;;;;;;;;;30.33;27.00;;;;;3.70;100.00;102519.16;5083372;28;27866;-84
2023/01/22 09:07:11;;;;;;;;;31.00;26.67;;;;;3.78;100.00;102523.22;5102774;28;28453;-84
2023/01/22 09:09:38;;;;;;;;;41.33;37.00;;;;;3.88;100.00;102523.84;5083732;28;30891;-84
2023/01/22 09:12:03;;;;;;;;;23.67;21.33;;;;;3.87;100.00;102517.69;5082842;28;29730;-84
2023/01/22 09:14:28;;;;;;;;;34.67;22.33;;;;;3.89;100.00;102517.78;5082725;28;28595;-84
2023/01/22 09:16:54;;;;;;;;;36.33;24.67;;;;;3.95;100.00;102515.59;5080162;28;28812;-84
2023/01/22 09:19:19;;;;;;;;;28.00;26.67;;;;;4.03;100.00;102509.13;5061598;28;30984;-84
2023/01/22 09:21:45;;;;;;;;;29.33;29.00;;;;;4.12;100.00;102504.50;5079979;28;28341;-84
2023/01/22 09:24:10;;;;;;;;;40.67;35.67;;;;;4.24;100.00;102509.69;5061969;28;27917;-83
2023/01/22 09:26:36;;;;;;;;;37.00;33.33;;;;;4.29;100.00;102500.38;5079796;28;27867;-84
2023/01/22 09:29:04;;;;;;;;;33.67;32.67;;;;;4.53;100.00;102518.66;5080577;28;28508;-84
2023/01/22 09:31:31;;;;;;;;;35.67;32.00;;;;;4.40;100.00;102506.38;5058054;28;28652;-83
2023/01/22 09:33:56;;;;;;;;;24.33;23.67;;;;;4.37;100.00;102514.06;5057189;28;27855;-84
2023/01/22 09:36:21;;;;;;;;;40.00;32.33;;;;;4.31;100.00;102514.56;5059503;28;27834;-84
2023/01/22 09:38:47;;;;;;;;;31.00;28.33;;;;;4.35;100.00;102513.97;5058201;28;29733;-84
2023/01/22 09:41:38;;;;;;;;;44.50;39.50;;;;;4.49;100.00;102522.81;5057985;28;27876;-83
2023/01/22 09:44:15;;;;;;;;;30.33;28.67;;;;;4.36;100.00;102528.03;5059243;28;27763;-83
2023/01/22 09:46:55;;;;;;;;;43.33;35.33;;;;;4.38;100.00;102523.78;5059910;28;27859;-83
2023/01/22 09:49:26;;;;;;;;;37.33;31.33;;;;;4.39;100.00;102520.34;5058430;28;30336;-84
2023/01/22 09:51:55;;;;;;;;;41.33;36.00;;;;;4.40;100.00;102522.16;5059048;28;27888;-84
2023/01/22 09:54:21;;;;;;;;;37.00;34.33;;;;;4.38;100.00;102540.53;5060003;28;28534;-84
2023/01/22 09:56:50;;;;;;;;;38.00;34.67;;;;;4.32;100.00;102540.13;5058506;28;28514;-84
2023/01/22 09:59:24;;;;;;;;;36.67;31.33;;;;;4.39;100.00;102530.91;5058383;28;30925;-84
2023/01/22 10:02:03;;;;;;;;;32.67;26.00;;;;;4.46;100.00;102533.13;5060545;28;28468;-84
2023/01/22 10:04:41;;;;;;;;;41.67;34.33;;;;;4.59;100.00;102537.53;5058712;28;28833;-84
2023/01/22 10:07:12;;;;;;;;;30.25;24.75;;;;;4.58;100.00;102540.94;5078394;28;28493;-84
2023/01/22 10:09:40;;;;;;;;;45.25;39.00;;;;;4.63;100.00;102542.19;5078193;28;29954;-84
2023/01/22 10:12:12;;;;;;;;;31.33;29.00;;;;;4.72;100.00;102526.06;5078331;28;29069;-83
2023/01/22 10:14:38;;;;;;;;;38.00;32.67;;;;;4.68;100.00;102535.47;5078770;28;27923;-84
2023/01/22 10:17:16;;;;;;;;;43.00;33.50;;;;;4.75;100.00;102532.44;5079952;28;27970;-84
2023/01/22 10:19:45;;;;;;;;;39.00;31.33;;;;;4.78;100.00;102542.28;5082303;28;28247;-84
2023/01/22 10:22:20;;;;;;;;;32.00;32.00;;;;;4.83;100.00;102535.59;5079067;28;28987;-85
2023/01/22 10:24:45;;;;;;;;;40.00;36.00;;;;;4.71;100.00;102529.53;5083018;28;27724;-85
2023/01/22 10:27:15;;;;;;;;;31.67;29.67;;;;;4.77;100.00;102541.38;5081787;28;28494;-85
2023/01/22 10:29:44;;;;;;;;;31.33;28.67;;;;;4.80;100.00;102540.66;5078377;28;29813;-84
2023/01/22 10:32:22;;;;;;;;;10.33;8.33;;;;;4.86;100.00;102530.53;5077734;28;28695;-84
2023/01/22 10:35:00;;;;;;;;;34.00;25.67;;;;;4.89;100.00;102536.00;5078373;28;28509;-85
2023/01/22 10:37:26;;;;;;;;;35.00;31.33;;;;;4.80;100.00;102527.47;5077652;28;28489;-85
2023/01/22 10:39:57;;;;;;;;;33.67;28.67;;;;;4.92;100.00;102524.75;5077242;28;29901;-84
2023/01/22 10:42:27;;;;;;;;;28.00;23.67;;;;;4.98;100.00;102526.03;5077036;28;29143;-84
2023/01/22 10:45:08;;;;;;;;;40.33;29.33;;;;;4.91;100.00;102528.19;5079523;28;28597;-84
2023/01/22 10:47:34;;;;;;;;;30.00;26.00;;;;;4.85;100.00;102517.22;5082514;28;28301;-84
2023/01/22 10:50:02;;;;;;;;;35.00;30.67;;;;;4.79;100.00;102507.22;5081721;28;29696;-84
2023/01/22 10:52:35;;;;;;;;;26.33;22.67;;;;;4.79;100.00;102512.50;5081782;28;27902;-84
2023/01/22 10:55:02;;;;;;;;;30.00;27.00;;;;;4.78;100.00;102515.91;5081067;28;28011;-84
2023/01/22 11:01:00;;;;;;;;;22.00;18.33;;;;;4.82;100.00;102521.50;5083605;28;28429;-84
2023/01/22 11:03:34;;;;;;;;;17.33;16.00;;;;;4.74;100.00;102527.97;5082474;28;28464;-84
2023/01/22 11:06:17;;;;;;;;;30.00;25.00;;;;;4.71;100.00;102513.72;5081645;28;28496;-84
2023/01/22 11:08:48;;;;;;;;;24.33;20.33;;;;;4.70;100.00;102518.03;5081572;28;27898;-84
2023/01/22 11:11:19;;;;;;;;;29.00;24.00;;;;;4.72;100.00;102518.16;5080616;28;30390;-85
2023/01/22 11:13:53;;;;;;;;;26.00;22.00;;;;;4.80;100.00;102522.22;5081747;28;28591;-84
2023/01/22 11:16:21;;;;;;;;;30.00;26.00;;;;;4.74;100.00;102513.91;5079932;28;28461;-84
2023/01/22 11:19:04;;;;;;;;;16.33;8.67;;;;;4.82;100.00;102517.94;5081974;28;28506;-84
2023/01/22 11:24:52;;;;;;;;;28.00;25.33;;;;;4.65;100.00;102505.41;5086029;28;27937;-84
2023/01/22 11:27:36;;;;;;;;;22.33;21.67;;;;;4.73;100.00;102502.44;5084215;28;28346;-84
2023/01/22 11:30:44;;;;;;;;;29.00;27.33;;;;;4.95;100.00;102509.16;5083656;28;27990;-83
2023/01/22 11:33:25;;;;;;;;;25.67;23.67;;;;;4.89;100.00;102499.09;5081616;28;30537;-84
2023/01/22 11:36:18;;;;;;;;;24.33;15.00;;;;;4.90;100.00;102497.38;5083763;28;29681;-84